RJAA/NRT METAR and TAF weather

Enter ICAO airport designator
Station Type Date Time Source
RJAA METAR 2020/01/24 21:00 UTC NOAA

RJAA 242100Z 02006KT 9999 FEW015 SCT050 BKN/// 03/M02 Q1026 NOSIG


Station Type Date Time Source
RJAA Decoded METAR 2020/01/24 21:00 UTC NOAA

New Tokyo Inter-National Airport, Japan (RJAA) 35-46N 140-23E 44M
Jan 24, 2020 - 04:00 PM EST / 2020.01.24 2100 UTC
Wind: from the NNE (020 degrees) at 7 MPH (6 KT):0
Visibility: greater than 7 mile(s):0
Sky conditions: mostly cloudy
Temperature: 37 F (3 C)
Dew Point: 28 F (-2 C)
Relative Humidity: 69%
Pressure (altimeter): 30.30 in. Hg (1026 hPa)
ob: RJAA 242100Z 02006KT 9999 FEW015 SCT050 BKN/// 03/M02 Q1026 NOSIG
cycle: 21

Station Type Date Time Source
RJAA TAF 2020/01/24 18:08 UTC NOAA

TAF RJAA 241705Z 2418/2600 01010KT 9999 FEW020
BECMG 2504/2506 10006KT
BECMG 2509/2512 35006KT

Example: see airport list